Terminal Aerodrome Forecast
Issued by NWS Melbourne, FL

Home | Current Version | Previous Version | Text Only | Print | Product List | Glossary On
Versions: 1 2 3 4 5 6 7 8 9 10 11 12 13 14
564
FTUS42 KMLB 230523
TAFMLB
TAF
KMLB 230523Z 2306/2406 18004KT P6SM BKN250
     FM231400 20012G18KT P6SM SCT025 BKN250
     FM232000 21013G21KT P6SM VCTS SCT040CB BKN250
     FM240000 21009KT P6SM SCT040 BKN250=

USA.gov is the U.S. government's official web portal to all federal, state and local government web resources and services.